sensor_id;sensor_type;location;lat;lon;timestamp;pressure;altitude;pressure_sealevel;temperature
75658;BMP280;64255;49.892;17.884;2022-10-16T00:01:40;98923.78;;;13.58
75658;BMP280;64255;49.892;17.884;2022-10-16T00:04:08;98908.53;;;13.63
75658;BMP280;64255;49.892;17.884;2022-10-16T00:06:36;98920.72;;;13.67
75658;BMP280;64255;49.892;17.884;2022-10-16T00:09:03;98920.75;;;13.60
75658;BMP280;64255;49.892;17.884;2022-10-16T00:11:35;98925.31;;;13.67
75658;BMP280;64255;49.892;17.884;2022-10-16T00:14:11;98926.06;;;13.64
75658;BMP280;64255;49.892;17.884;2022-10-16T00:16:39;98919.59;;;13.65
75658;BMP280;64255;49.892;17.884;2022-10-16T00:19:06;98918.81;;;13.71
75658;BMP280;64255;49.892;17.884;2022-10-16T00:21:33;98924.13;;;13.82
75658;BMP280;64255;49.892;17.884;2022-10-16T00:24:05;98918.41;;;13.77
75658;BMP280;64255;49.892;17.884;2022-10-16T00:26:35;98916.53;;;13.70
75658;BMP280;64255;49.892;17.884;2022-10-16T00:29:04;98916.16;;;13.68
75658;BMP280;64255;49.892;17.884;2022-10-16T00:31:31;98923.00;;;13.69
75658;BMP280;64255;49.892;17.884;2022-10-16T00:33:58;98920.75;;;13.64
75658;BMP280;64255;49.892;17.884;2022-10-16T00:36:27;98905.88;;;13.73
75658;BMP280;64255;49.892;17.884;2022-10-16T00:38:56;98907.72;;;13.84
75658;BMP280;64255;49.892;17.884;2022-10-16T00:41:27;98906.59;;;13.81
75658;BMP280;64255;49.892;17.884;2022-10-16T00:43:58;98913.09;;;13.80
75658;BMP280;64255;49.892;17.884;2022-10-16T00:49:10;98928.72;;;13.74
75658;BMP280;64255;49.892;17.884;2022-10-16T00:51:46;98925.66;;;13.69
75658;BMP280;64255;49.892;17.884;2022-10-16T00:54:32;98921.50;;;13.68
75658;BMP280;64255;49.892;17.884;2022-10-16T00:57:04;98924.16;;;13.61
75658;BMP280;64255;49.892;17.884;2022-10-16T00:59:39;98927.59;;;13.68
75658;BMP280;64255;49.892;17.884;2022-10-16T01:02:14;98919.59;;;13.68
75658;BMP280;64255;49.892;17.884;2022-10-16T01:04:49;98919.97;;;13.67
75658;BMP280;64255;49.892;17.884;2022-10-16T01:07:41;98929.13;;;13.69
75658;BMP280;64255;49.892;17.884;2022-10-16T01:10:57;98921.50;;;13.75
75658;BMP280;64255;49.892;17.884;2022-10-16T01:13:38;98916.16;;;13.75
75658;BMP280;64255;49.892;17.884;2022-10-16T01:16:22;98905.88;;;13.73
75658;BMP280;64255;49.892;17.884;2022-10-16T01:19:17;98908.50;;;13.84
75658;BMP280;64255;49.892;17.884;2022-10-16T01:21:51;98894.78;;;13.82
75658;BMP280;64255;49.892;17.884;2022-10-16T01:24:48;98905.06;;;13.87
75658;BMP280;64255;49.892;17.884;2022-10-16T01:27:29;98908.09;;;13.86
75658;BMP280;64255;49.892;17.884;2022-10-16T01:30:12;98904.69;;;13.93
75658;BMP280;64255;49.892;17.884;2022-10-16T01:32:50;98915.00;;;13.83
75658;BMP280;64255;49.892;17.884;2022-10-16T01:35:29;98916.91;;;13.79
75658;BMP280;64255;49.892;17.884;2022-10-16T01:38:25;98921.06;;;13.77
75658;BMP280;64255;49.892;17.884;2022-10-16T01:41:22;98916.13;;;13.82
75658;BMP280;64255;49.892;17.884;2022-10-16T01:44:30;98915.38;;;13.74
75658;BMP280;64255;49.892;17.884;2022-10-16T01:46:57;98929.13;;;13.73
75658;BMP280;64255;49.892;17.884;2022-10-16T01:49:31;98932.53;;;13.70
75658;BMP280;64255;49.892;17.884;2022-10-16T01:52:06;98929.50;;;13.68
75658;BMP280;64255;49.892;17.884;2022-10-16T01:54:37;98929.88;;;13.73
75658;BMP280;64255;49.892;17.884;2022-10-16T01:57:08;98934.84;;;13.61
75658;BMP280;64255;49.892;17.884;2022-10-16T01:59:45;98923.78;;;13.62
75658;BMP280;64255;49.892;17.884;2022-10-16T02:02:15;98938.66;;;13.52
75658;BMP280;64255;49.892;17.884;2022-10-16T02:04:53;98942.47;;;13.48
75658;BMP280;64255;49.892;17.884;2022-10-16T02:07:22;98936.38;;;13.36
75658;BMP280;64255;49.892;17.884;2022-10-16T02:09:50;98934.88;;;13.35
75658;BMP280;64255;49.892;17.884;2022-10-16T02:12:31;98921.09;;;13.15
75658;BMP280;64255;49.892;17.884;2022-10-16T02:14:59;98923.78;;;13.22
75658;BMP280;64255;49.892;17.884;2022-10-16T02:17:28;98925.31;;;13.27
75658;BMP280;64255;49.892;17.884;2022-10-16T02:19:56;98923.03;;;13.36
75658;BMP280;64255;49.892;17.884;2022-10-16T02:25:10;98928.38;;;13.22
75658;BMP280;64255;49.892;17.884;2022-10-16T02:30:50;98915.06;;;13.14
75658;BMP280;64255;49.892;17.884;2022-10-16T02:33:22;98907.78;;;13.11
75658;BMP280;64255;49.892;17.884;2022-10-16T02:35:51;98911.97;;;13.20
75658;BMP280;64255;49.892;17.884;2022-10-16T02:38:22;98909.34;;;13.34
75658;BMP280;64255;49.892;17.884;2022-10-16T02:40:49;98908.19;;;13.35
75658;BMP280;64255;49.892;17.884;2022-10-16T02:43:17;98905.53;;;13.28
75658;BMP280;64255;49.892;17.884;2022-10-16T02:45:44;98911.59;;;13.39
75658;BMP280;64255;49.892;17.884;2022-10-16T02:48:11;98906.66;;;13.34
75658;BMP280;64255;49.892;17.884;2022-10-16T02:50:39;98912.00;;;13.31
75658;BMP280;64255;49.892;17.884;2022-10-16T02:53:06;98908.94;;;13.28
75658;BMP280;64255;49.892;17.884;2022-10-16T02:55:33;98912.78;;;13.27
75658;BMP280;64255;49.892;17.884;2022-10-16T02:58:00;98904.75;;;13.31
75658;BMP280;64255;49.892;17.884;2022-10-16T03:00:27;98898.28;;;13.36
75658;BMP280;64255;49.892;17.884;2022-10-16T03:02:54;98897.13;;;13.37
75658;BMP280;64255;49.892;17.884;2022-10-16T03:05:21;98902.09;;;13.42
75658;BMP280;64255;49.892;17.884;2022-10-16T03:07:49;98891.03;;;13.54
75658;BMP280;64255;49.892;17.884;2022-10-16T03:10:16;98893.69;;;13.62
75658;BMP280;64255;49.892;17.884;2022-10-16T03:12:43;98902.44;;;13.62
75658;BMP280;64255;49.892;17.884;2022-10-16T03:15:10;98910.84;;;13.68
75658;BMP280;64255;49.892;17.884;2022-10-16T03:17:37;98906.63;;;13.63
75658;BMP280;64255;49.892;17.884;2022-10-16T03:20:05;98919.22;;;13.52
75658;BMP280;64255;49.892;17.884;2022-10-16T03:22:32;98918.47;;;13.51
75658;BMP280;64255;49.892;17.884;2022-10-16T03:24:59;98919.97;;;13.49
75658;BMP280;64255;49.892;17.884;2022-10-16T03:27:27;98918.09;;;13.60
75658;BMP280;64255;49.892;17.884;2022-10-16T03:29:54;98908.53;;;13.55
75658;BMP280;64255;49.892;17.884;2022-10-16T03:32:22;98904.75;;;13.53
75658;BMP280;64255;49.892;17.884;2022-10-16T03:34:49;98915.41;;;13.53
75658;BMP280;64255;49.892;17.884;2022-10-16T03:37:16;98917.31;;;13.59
75658;BMP280;64255;49.892;17.884;2022-10-16T03:39:43;98922.28;;;13.65
75658;BMP280;64255;49.892;17.884;2022-10-16T03:42:10;98923.03;;;13.62
75658;BMP280;64255;49.892;17.884;2022-10-16T03:44:38;98932.94;;;13.57
75658;BMP280;64255;49.892;17.884;2022-10-16T03:47:04;98930.66;;;13.52
75658;BMP280;64255;49.892;17.884;2022-10-16T03:49:31;98929.13;;;13.51
75658;BMP280;64255;49.892;17.884;2022-10-16T03:51:59;98932.19;;;13.46
75658;BMP280;64255;49.892;17.884;2022-10-16T03:54:25;98927.59;;;13.47
75658;BMP280;64255;49.892;17.884;2022-10-16T03:56:53;98923.81;;;13.48
75658;BMP280;64255;49.892;17.884;2022-10-16T03:59:20;98931.41;;;13.56
75658;BMP280;64255;49.892;17.884;2022-10-16T04:01:47;98939.78;;;13.51
75658;BMP280;64255;49.892;17.884;2022-10-16T04:04:13;98946.63;;;13.49
75658;BMP280;64255;49.892;17.884;2022-10-16T04:06:41;98948.94;;;13.43
75658;BMP280;64255;49.892;17.884;2022-10-16T04:09:08;98956.94;;;13.39
75658;BMP280;64255;49.892;17.884;2022-10-16T04:11:34;98961.53;;;13.39
75658;BMP280;64255;49.892;17.884;2022-10-16T04:14:02;98963.41;;;13.35
75658;BMP280;64255;49.892;17.884;2022-10-16T04:16:29;98964.94;;;13.28
75658;BMP280;64255;49.892;17.884;2022-10-16T04:18:56;98961.88;;;13.30
75658;BMP280;64255;49.892;17.884;2022-10-16T04:21:23;98968.38;;;13.33
75658;BMP280;64255;49.892;17.884;2022-10-16T04:23:50;98963.81;;;13.33
75658;BMP280;64255;49.892;17.884;2022-10-16T04:26:17;98968.75;;;13.38
75658;BMP280;64255;49.892;17.884;2022-10-16T04:28:44;98964.94;;;13.43
75658;BMP280;64255;49.892;17.884;2022-10-16T04:31:11;98963.44;;;13.42
75658;BMP280;64255;49.892;17.884;2022-10-16T04:33:38;98965.69;;;13.36
75658;BMP280;64255;49.892;17.884;2022-10-16T04:36:05;98960.75;;;13.46
75658;BMP280;64255;49.892;17.884;2022-10-16T04:38:32;98963.44;;;13.46
75658;BMP280;64255;49.892;17.884;2022-10-16T04:41:00;98961.91;;;13.41
75658;BMP280;64255;49.892;17.884;2022-10-16T04:43:27;98961.91;;;13.52
75658;BMP280;64255;49.892;17.884;2022-10-16T04:45:53;98961.13;;;13.51
75658;BMP280;64255;49.892;17.884;2022-10-16T04:48:21;98968.78;;;13.42
75658;BMP280;64255;49.892;17.884;2022-10-16T04:50:49;98976.03;;;13.41
75658;BMP280;64255;49.892;17.884;2022-10-16T04:53:16;98971.44;;;13.46
75658;BMP280;64255;49.892;17.884;2022-10-16T04:55:43;98968.00;;;13.45
75658;BMP280;64255;49.892;17.884;2022-10-16T04:58:10;98965.72;;;13.40
75658;BMP280;64255;49.892;17.884;2022-10-16T05:00:37;98976.41;;;13.47
75658;BMP280;64255;49.892;17.884;2022-10-16T05:03:05;98982.13;;;13.53
75658;BMP280;64255;49.892;17.884;2022-10-16T05:05:36;98977.16;;;13.55
75658;BMP280;64255;49.892;17.884;2022-10-16T05:08:03;98979.81;;;13.55
75658;BMP280;64255;49.892;17.884;2022-10-16T05:10:31;98992.41;;;13.51
75658;BMP280;64255;49.892;17.884;2022-10-16T05:12:58;98989.34;;;13.52
75658;BMP280;64255;49.892;17.884;2022-10-16T05:15:25;98978.66;;;13.52
75658;BMP280;64255;49.892;17.884;2022-10-16T05:17:53;98978.31;;;13.61
75658;BMP280;64255;49.892;17.884;2022-10-16T05:20:22;98988.97;;;13.68
75658;BMP280;64255;49.892;17.884;2022-10-16T05:22:49;98990.13;;;13.64
75658;BMP280;64255;49.892;17.884;2022-10-16T05:25:16;98988.59;;;13.73
75658;BMP280;64255;49.892;17.884;2022-10-16T05:27:47;98985.16;;;13.73
75658;BMP280;64255;49.892;17.884;2022-10-16T05:30:16;98993.53;;;13.71
75658;BMP280;64255;49.892;17.884;2022-10-16T05:32:49;98989.34;;;13.74
75658;BMP280;64255;49.892;17.884;2022-10-16T05:35:17;98984.41;;;13.80
75658;BMP280;64255;49.892;17.884;2022-10-16T05:37:44;99000.00;;;13.85
75658;BMP280;64255;49.892;17.884;2022-10-16T05:40:11;98990.84;;;13.89
75658;BMP280;64255;49.892;17.884;2022-10-16T05:42:40;98989.69;;;13.94
75658;BMP280;64255;49.892;17.884;2022-10-16T05:45:10;99000.38;;;14.12
75658;BMP280;64255;49.892;17.884;2022-10-16T05:47:39;98992.66;;;14.32
75658;BMP280;64255;49.892;17.884;2022-10-16T05:50:07;99002.16;;;14.41
75658;BMP280;64255;49.892;17.884;2022-10-16T05:52:34;98996.06;;;14.44
75658;BMP280;64255;49.892;17.884;2022-10-16T05:55:01;98993.78;;;14.42
75658;BMP280;64255;49.892;17.884;2022-10-16T05:57:29;99005.63;;;14.38
75658;BMP280;64255;49.892;17.884;2022-10-16T05:59:57;99012.88;;;14.33
75658;BMP280;64255;49.892;17.884;2022-10-16T06:02:24;99011.38;;;14.29
75658;BMP280;64255;49.892;17.884;2022-10-16T06:04:52;99014.78;;;14.29
75658;BMP280;64255;49.892;17.884;2022-10-16T06:07:21;99031.19;;;14.31
75658;BMP280;64255;49.892;17.884;2022-10-16T06:09:50;99038.06;;;14.32
75658;BMP280;64255;49.892;17.884;2022-10-16T06:12:18;99046.06;;;14.36
75658;BMP280;64255;49.892;17.884;2022-10-16T06:14:48;99047.59;;;14.37
75658;BMP280;64255;49.892;17.884;2022-10-16T06:17:15;99048.72;;;14.40
75658;BMP280;64255;49.892;17.884;2022-10-16T06:19:43;99056.00;;;14.43
75658;BMP280;64255;49.892;17.884;2022-10-16T06:22:10;99059.41;;;14.47
75658;BMP280;64255;49.892;17.884;2022-10-16T06:24:37;99055.56;;;14.48
75658;BMP280;64255;49.892;17.884;2022-10-16T06:27:05;99064.34;;;14.56
75658;BMP280;64255;49.892;17.884;2022-10-16T06:29:32;99069.25;;;14.64
75658;BMP280;64255;49.892;17.884;2022-10-16T06:31:59;99064.69;;;14.69
75658;BMP280;64255;49.892;17.884;2022-10-16T06:34:26;99069.63;;;14.74
75658;BMP280;64255;49.892;17.884;2022-10-16T06:36:53;99069.22;;;14.79
75658;BMP280;64255;49.892;17.884;2022-10-16T06:39:20;99079.88;;;14.83
75658;BMP280;64255;49.892;17.884;2022-10-16T06:41:48;99087.88;;;14.90
75658;BMP280;64255;49.892;17.884;2022-10-16T06:44:15;99081.75;;;14.96
75658;BMP280;64255;49.892;17.884;2022-10-16T06:46:42;99088.56;;;15.08
75658;BMP280;64255;49.892;17.884;2022-10-16T06:49:09;99079.38;;;15.17
75658;BMP280;64255;49.892;17.884;2022-10-16T06:51:37;99070.47;;;15.34
75658;BMP280;64255;49.892;17.884;2022-10-16T06:54:07;99064.84;;;15.74
75658;BMP280;64255;49.892;17.884;2022-10-16T06:56:35;99061.69;;;15.83
75658;BMP280;64255;49.892;17.884;2022-10-16T06:59:03;99064.59;;;16.03
75658;BMP280;64255;49.892;17.884;2022-10-16T07:01:31;99064.94;;;16.05
75658;BMP280;64255;49.892;17.884;2022-10-16T07:03:59;99062.78;;;15.89
75658;BMP280;64255;49.892;17.884;2022-10-16T07:06:29;99062.50;;;15.76
75658;BMP280;64255;49.892;17.884;2022-10-16T07:08:57;99062.88;;;15.78
75658;BMP280;64255;49.892;17.884;2022-10-16T07:11:24;99062.88;;;15.78
75658;BMP280;64255;49.892;17.884;2022-10-16T07:13:52;99056.81;;;15.70
75658;BMP280;64255;49.892;17.884;2022-10-16T07:16:25;99067.50;;;15.74
75658;BMP280;64255;49.892;17.884;2022-10-16T07:18:57;99065.69;;;15.60
75658;BMP280;64255;49.892;17.884;2022-10-16T07:21:33;99076.41;;;15.60
75658;BMP280;64255;49.892;17.884;2022-10-16T07:24:05;99085.94;;;15.65
75658;BMP280;64255;49.892;17.884;2022-10-16T07:26:35;99095.06;;;15.67
75658;BMP280;64255;49.892;17.884;2022-10-16T07:29:03;99103.09;;;15.67
75658;BMP280;64255;49.892;17.884;2022-10-16T07:31:33;99101.88;;;15.79
75658;BMP280;64255;49.892;17.884;2022-10-16T07:34:01;99120.94;;;16.30
75658;BMP280;64255;49.892;17.884;2022-10-16T07:36:28;99137.66;;;18.10
75658;BMP280;64255;49.892;17.884;2022-10-16T07:38:54;99142.31;;;19.89
75658;BMP280;64255;49.892;17.884;2022-10-16T07:41:21;99135.53;;;20.82
75658;BMP280;64255;49.892;17.884;2022-10-16T07:43:51;99131.00;;;21.17
75658;BMP280;64255;49.892;17.884;2022-10-16T07:46:21;99147.41;;;21.36
75658;BMP280;64255;49.892;17.884;2022-10-16T07:48:49;99151.13;;;23.03
75658;BMP280;64255;49.892;17.884;2022-10-16T07:51:20;99137.88;;;22.96
75658;BMP280;64255;49.892;17.884;2022-10-16T07:53:49;99139.59;;;23.21
75658;BMP280;64255;49.892;17.884;2022-10-16T07:56:17;99134.47;;;23.23
75658;BMP280;64255;49.892;17.884;2022-10-16T07:58:45;99136.38;;;24.07
75658;BMP280;64255;49.892;17.884;2022-10-16T08:01:15;99138.84;;;23.39
75658;BMP280;64255;49.892;17.884;2022-10-16T08:03:50;99131.00;;;23.69
75658;BMP280;64255;49.892;17.884;2022-10-16T08:06:20;99141.75;;;22.45
75658;BMP280;64255;49.892;17.884;2022-10-16T08:08:48;99140.56;;;22.87
75658;BMP280;64255;49.892;17.884;2022-10-16T08:11:14;99148.09;;;22.92
75658;BMP280;64255;49.892;17.884;2022-10-16T08:13:42;99153.69;;;22.98
75658;BMP280;64255;49.892;17.884;2022-10-16T08:16:09;99154.59;;;23.04
75658;BMP280;64255;49.892;17.884;2022-10-16T08:18:39;99156.81;;;24.45
75658;BMP280;64255;49.892;17.884;2022-10-16T08:21:16;99163.19;;;24.57
75658;BMP280;64255;49.892;17.884;2022-10-16T08:23:44;99145.31;;;23.79
75658;BMP280;64255;49.892;17.884;2022-10-16T08:26:12;99134.44;;;23.98
75658;BMP280;64255;49.892;17.884;2022-10-16T08:28:40;99133.97;;;21.80
75658;BMP280;64255;49.892;17.884;2022-10-16T08:31:13;99131.88;;;20.20
75658;BMP280;64255;49.892;17.884;2022-10-16T08:33:44;99132.34;;;20.32
75658;BMP280;64255;49.892;17.884;2022-10-16T08:36:13;99141.44;;;20.51
75658;BMP280;64255;49.892;17.884;2022-10-16T08:38:40;99140.56;;;20.41
75658;BMP280;64255;49.892;17.884;2022-10-16T08:45:00;99134.00;;;19.67
75658;BMP280;64255;49.892;17.884;2022-10-16T08:50:21;99130.00;;;19.58
75658;BMP280;64255;49.892;17.884;2022-10-16T08:52:50;99134.56;;;19.28
75658;BMP280;64255;49.892;17.884;2022-10-16T08:55:45;99132.34;;;19.40
75658;BMP280;64255;49.892;17.884;2022-10-16T08:58:21;99130.44;;;19.40
75658;BMP280;64255;49.892;17.884;2022-10-16T09:01:05;99130.59;;;18.96
75658;BMP280;64255;49.892;17.884;2022-10-16T09:03:51;99137.09;;;18.99
75658;BMP280;64255;49.892;17.884;2022-10-16T09:09:38;99138.06;;;19.58
75658;BMP280;64255;49.892;17.884;2022-10-16T09:21:00;99151.91;;;19.07
75658;BMP280;64255;49.892;17.884;2022-10-16T09:23:32;99157.31;;;19.07
75658;BMP280;64255;49.892;17.884;2022-10-16T09:26:03;99158.97;;;19.01
75658;BMP280;64255;49.892;17.884;2022-10-16T09:28:32;99153.97;;;18.83
75658;BMP280;64255;49.892;17.884;2022-10-16T09:30:58;99162.09;;;19.00
75658;BMP280;64255;49.892;17.884;2022-10-16T09:33:34;99163.56;;;18.84
75658;BMP280;64255;49.892;17.884;2022-10-16T09:36:04;99172.22;;;18.92
75658;BMP280;64255;49.892;17.884;2022-10-16T09:38:35;99173.34;;;18.94
75658;BMP280;64255;49.892;17.884;2022-10-16T09:41:20;99188.75;;;19.10
75658;BMP280;64255;49.892;17.884;2022-10-16T09:46:34;99210.09;;;19.01
75658;BMP280;64255;49.892;17.884;2022-10-16T09:49:21;99211.09;;;18.91
75658;BMP280;64255;49.892;17.884;2022-10-16T09:51:48;99211.13;;;18.87
75658;BMP280;64255;49.892;17.884;2022-10-16T09:54:21;99211.91;;;18.88
75658;BMP280;64255;49.892;17.884;2022-10-16T09:56:48;99205.69;;;18.91
75658;BMP280;64255;49.892;17.884;2022-10-16T09:59:21;99222.63;;;18.91
75658;BMP280;64255;49.892;17.884;2022-10-16T10:01:54;99230.81;;;18.84
75658;BMP280;64255;49.892;17.884;2022-10-16T10:04:24;99219.94;;;18.91
75658;BMP280;64255;49.892;17.884;2022-10-16T10:06:57;99205.28;;;18.92
75658;BMP280;64255;49.892;17.884;2022-10-16T10:12:02;99213.34;;;19.12
75658;BMP280;64255;49.892;17.884;2022-10-16T10:14:44;99218.50;;;19.23
75658;BMP280;64255;49.892;17.884;2022-10-16T10:17:16;99210.25;;;19.31
75658;BMP280;64255;49.892;17.884;2022-10-16T10:19:51;99206.91;;;19.43
75658;BMP280;64255;49.892;17.884;2022-10-16T10:22:40;99205.22;;;19.49
75658;BMP280;64255;49.892;17.884;2022-10-16T10:25:39;99207.00;;;19.72
75658;BMP280;64255;49.892;17.884;2022-10-16T10:31:49;99208.78;;;19.79
75658;BMP280;64255;49.892;17.884;2022-10-16T10:45:48;99211.56;;;19.59
75658;BMP280;64255;49.892;17.884;2022-10-16T10:48:54;99215.44;;;19.58
75658;BMP280;64255;49.892;17.884;2022-10-16T10:54:49;99220.94;;;19.34
75658;BMP280;64255;49.892;17.884;2022-10-16T10:57:34;99224.06;;;19.33
75658;BMP280;64255;49.892;17.884;2022-10-16T11:00:57;99223.63;;;19.34
75658;BMP280;64255;49.892;17.884;2022-10-16T11:09:15;99220.75;;;19.25
75658;BMP280;64255;49.892;17.884;2022-10-16T11:12:01;99213.63;;;19.18
75658;BMP280;64255;49.892;17.884;2022-10-16T11:15:21;99210.06;;;19.21
75658;BMP280;64255;49.892;17.884;2022-10-16T11:18:05;99203.84;;;19.24
75658;BMP280;64255;49.892;17.884;2022-10-16T11:20:47;99196.75;;;19.14
75658;BMP280;64255;49.892;17.884;2022-10-16T11:23:25;99199.81;;;19.16
75658;BMP280;64255;49.892;17.884;2022-10-16T11:25:59;99194.97;;;19.07
75658;BMP280;64255;49.892;17.884;2022-10-16T11:28:39;99208.13;;;19.05
75658;BMP280;64255;49.892;17.884;2022-10-16T11:31:34;99211.25;;;19.20
75658;BMP280;64255;49.892;17.884;2022-10-16T11:34:38;99208.53;;;19.20
75658;BMP280;64255;49.892;17.884;2022-10-16T11:37:17;99204.19;;;19.26
75658;BMP280;64255;49.892;17.884;2022-10-16T11:39:46;99211.19;;;19.24
75658;BMP280;64255;49.892;17.884;2022-10-16T11:42:37;99207.25;;;19.28
75658;BMP280;64255;49.892;17.884;2022-10-16T11:48:02;99215.75;;;19.43
75658;BMP280;64255;49.892;17.884;2022-10-16T11:51:25;99206.22;;;19.39
75658;BMP280;64255;49.892;17.884;2022-10-16T11:54:07;99200.00;;;19.42
75658;BMP280;64255;49.892;17.884;2022-10-16T11:56:40;99200.66;;;19.30
75658;BMP280;64255;49.892;17.884;2022-10-16T11:59:24;99200.16;;;19.18
75658;BMP280;64255;49.892;17.884;2022-10-16T12:05:28;99179.00;;;19.00
75658;BMP280;64255;49.892;17.884;2022-10-16T12:08:09;99198.84;;;19.06
75658;BMP280;64255;49.892;17.884;2022-10-16T12:10:42;99184.72;;;19.02
75658;BMP280;64255;49.892;17.884;2022-10-16T12:13:35;99192.78;;;19.02
75658;BMP280;64255;49.892;17.884;2022-10-16T12:18:44;99207.41;;;19.01
75658;BMP280;64255;49.892;17.884;2022-10-16T12:21:17;99213.56;;;19.02
75658;BMP280;64255;49.892;17.884;2022-10-16T12:23:53;99218.59;;;19.00
75658;BMP280;64255;49.892;17.884;2022-10-16T12:26:38;99217.09;;;18.99
75658;BMP280;64255;49.892;17.884;2022-10-16T12:29:49;99211.22;;;19.04
75658;BMP280;64255;49.892;17.884;2022-10-16T12:32:34;99217.28;;;19.08
75658;BMP280;64255;49.892;17.884;2022-10-16T12:35:05;99212.56;;;19.12
75658;BMP280;64255;49.892;17.884;2022-10-16T12:37:36;99201.25;;;19.21
75658;BMP280;64255;49.892;17.884;2022-10-16T12:40:30;99218.41;;;19.27
75658;BMP280;64255;49.892;17.884;2022-10-16T12:42:58;99207.16;;;19.32
75658;BMP280;64255;49.892;17.884;2022-10-16T12:45:33;99211.38;;;19.33
75658;BMP280;64255;49.892;17.884;2022-10-16T12:48:17;99209.78;;;19.36
75658;BMP280;64255;49.892;17.884;2022-10-16T12:50:45;99218.03;;;19.45
75658;BMP280;64255;49.892;17.884;2022-10-16T12:53:25;99216.16;;;19.42
75658;BMP280;64255;49.892;17.884;2022-10-16T12:56:22;99202.44;;;19.36
75658;BMP280;64255;49.892;17.884;2022-10-16T12:59:00;99216.75;;;19.33
75658;BMP280;64255;49.892;17.884;2022-10-16T13:22:30;99201.16;;;19.24
75658;BMP280;64255;49.892;17.884;2022-10-16T13:28:00;99204.56;;;19.08
75658;BMP280;64255;49.892;17.884;2022-10-16T13:30:39;99215.66;;;19.10
75658;BMP280;64255;49.892;17.884;2022-10-16T13:35:56;99204.50;;;19.12
75658;BMP280;64255;49.892;17.884;2022-10-16T13:38:28;99219.13;;;19.11
75658;BMP280;64255;49.892;17.884;2022-10-16T13:41:03;99215.00;;;19.06
75658;BMP280;64255;49.892;17.884;2022-10-16T13:43:41;99222.03;;;19.00
75658;BMP280;64255;49.892;17.884;2022-10-16T13:46:21;99225.56;;;18.97
75658;BMP280;64255;49.892;17.884;2022-10-16T13:49:00;99229.38;;;19.00
75658;BMP280;64255;49.892;17.884;2022-10-16T13:51:31;99231.28;;;18.99
75658;BMP280;64255;49.892;17.884;2022-10-16T13:53:59;99233.31;;;18.95
75658;BMP280;64255;49.892;17.884;2022-10-16T13:56:30;99248.47;;;19.05
75658;BMP280;64255;49.892;17.884;2022-10-16T13:59:07;99240.25;;;19.12
75658;BMP280;64255;49.892;17.884;2022-10-16T14:01:53;99247.91;;;19.14
75658;BMP280;64255;49.892;17.884;2022-10-16T14:04:21;99255.34;;;19.26
75658;BMP280;64255;49.892;17.884;2022-10-16T14:06:50;99249.63;;;19.24
75658;BMP280;64255;49.892;17.884;2022-10-16T14:09:22;99252.38;;;19.21
75658;BMP280;64255;49.892;17.884;2022-10-16T14:11:59;99255.34;;;19.26
75658;BMP280;64255;49.892;17.884;2022-10-16T14:14:51;99251.75;;;19.33
75658;BMP280;64255;49.892;17.884;2022-10-16T14:17:26;99254.63;;;19.42
75658;BMP280;64255;49.892;17.884;2022-10-16T14:19:57;99257.34;;;19.42
75658;BMP280;64255;49.892;17.884;2022-10-16T14:22:41;99254.47;;;19.50
75658;BMP280;64255;49.892;17.884;2022-10-16T14:28:13;99261.88;;;19.46
75658;BMP280;64255;49.892;17.884;2022-10-16T14:30:58;99263.47;;;19.43
75658;BMP280;64255;49.892;17.884;2022-10-16T14:33:32;99259.06;;;19.33
75658;BMP280;64255;49.892;17.884;2022-10-16T14:36:29;99265.03;;;19.24
75658;BMP280;64255;49.892;17.884;2022-10-16T14:39:04;99272.13;;;19.14
75658;BMP280;64255;49.892;17.884;2022-10-16T14:41:41;99271.19;;;19.04
75658;BMP280;64255;49.892;17.884;2022-10-16T14:44:12;99275.13;;;19.00
75658;BMP280;64255;49.892;17.884;2022-10-16T14:46:42;99275.78;;;19.04
75658;BMP280;64255;49.892;17.884;2022-10-16T14:51:39;99276.81;;;18.90
75658;BMP280;64255;49.892;17.884;2022-10-16T14:54:14;99275.50;;;18.78
75658;BMP280;64255;49.892;17.884;2022-10-16T14:56:51;99283.94;;;18.80
75658;BMP280;64255;49.892;17.884;2022-10-16T14:59:37;99277.13;;;18.75
75658;BMP280;64255;49.892;17.884;2022-10-16T15:04:48;99275.72;;;18.67
75658;BMP280;64255;49.892;17.884;2022-10-16T15:07:16;99269.78;;;18.76
75658;BMP280;64255;49.892;17.884;2022-10-16T15:09:43;99274.00;;;18.77
75658;BMP280;64255;49.892;17.884;2022-10-16T15:12:11;99267.91;;;18.73
75658;BMP280;64255;49.892;17.884;2022-10-16T15:14:38;99267.97;;;18.69
75658;BMP280;64255;49.892;17.884;2022-10-16T15:17:23;99268.75;;;18.70
75658;BMP280;64255;49.892;17.884;2022-10-16T15:19:51;99273.03;;;18.67
75658;BMP280;64255;49.892;17.884;2022-10-16T15:22:17;99256.13;;;18.67
75658;BMP280;64255;49.892;17.884;2022-10-16T15:24:44;99264.41;;;18.56
75658;BMP280;64255;49.892;17.884;2022-10-16T15:27:11;99262.09;;;18.54
75658;BMP280;64255;49.892;17.884;2022-10-16T15:29:38;99265.22;;;18.53
75658;BMP280;64255;49.892;17.884;2022-10-16T15:32:05;99262.84;;;18.55
75658;BMP280;64255;49.892;17.884;2022-10-16T15:34:33;99256.16;;;18.43
75658;BMP280;64255;49.892;17.884;2022-10-16T15:37:03;99263.09;;;18.40
75658;BMP280;64255;49.892;17.884;2022-10-16T15:39:30;99258.19;;;18.35
75658;BMP280;64255;49.892;17.884;2022-10-16T15:41:57;99274.47;;;18.28
75658;BMP280;64255;49.892;17.884;2022-10-16T15:44:24;99276.97;;;18.15
75658;BMP280;64255;49.892;17.884;2022-10-16T15:46:54;99275.78;;;18.16
75658;BMP280;64255;49.892;17.884;2022-10-16T15:49:21;99279.16;;;18.20
75658;BMP280;64255;49.892;17.884;2022-10-16T15:51:47;99281.03;;;17.99
75658;BMP280;64255;49.892;17.884;2022-10-16T15:54:14;99283.69;;;18.03
75658;BMP280;64255;49.892;17.884;2022-10-16T15:56:41;99277.69;;;17.92
75658;BMP280;64255;49.892;17.884;2022-10-16T15:59:09;99293.44;;;17.90
75658;BMP280;64255;49.892;17.884;2022-10-16T16:01:36;99290.97;;;17.75
75658;BMP280;64255;49.892;17.884;2022-10-16T16:04:04;99289.09;;;17.72
75658;BMP280;64255;49.892;17.884;2022-10-16T16:06:31;99289.03;;;17.76
75658;BMP280;64255;49.892;17.884;2022-10-16T16:08:58;99294.84;;;17.74